Terminal Aerodrome Forecast
Issued by NWS

Current Version | Previous Version | Graphics & Text | Print | Product List | Glossary On
Versions: 1 2 3 4 5 6 7 8 9 10 11 12 13
000
FTUS41 KPBZ 271121
TAFMGW
TAF
KMGW 271121Z 2712/2812 18003KT P6SM BKN040
     FM272000 24006KT P6SM VCTS BKN050CB
     FM280100 00000KT P6SM SCT250=

USA.gov is the U.S. government's official web portal to all federal, state and local government web resources and services.